createdAt,value
2023-04-09T00:01:15.625Z,66.58
2023-04-09T00:03:45.145Z,66.48
2023-04-09T00:06:13.882Z,66.50
2023-04-09T00:08:41.980Z,66.39
2023-04-09T00:11:12.194Z,66.30
2023-04-09T00:13:41.109Z,66.30
2023-04-09T00:16:10.220Z,66.37
2023-04-09T00:18:38.837Z,66.37
2023-04-09T00:21:08.940Z,66.33
2023-04-09T00:23:38.558Z,66.25
2023-04-09T00:26:07.042Z,66.15
2023-04-09T00:28:36.311Z,66.02
2023-04-09T00:31:04.562Z,66.05
2023-04-09T00:33:33.404Z,66.03
2023-04-09T00:36:02.328Z,66.11
2023-04-09T00:38:30.928Z,66.19
2023-04-09T00:40:59.874Z,66.12
2023-04-09T00:43:28.121Z,66.07
2023-04-09T00:45:56.296Z,66.07
2023-04-09T00:48:27.792Z,66.02
2023-04-09T00:50:56.248Z,65.87
2023-04-09T00:53:25.091Z,65.77
2023-04-09T00:55:54.299Z,65.53
2023-04-09T00:58:32.889Z,65.30
2023-04-09T01:01:01.427Z,65.35
2023-04-09T01:03:32.385Z,65.40
2023-04-09T01:06:16.376Z,65.64
2023-04-09T01:09:12.784Z,65.74
2023-04-09T01:11:56.945Z,65.66
2023-04-09T01:14:33.042Z,65.84
2023-04-09T01:17:20.041Z,65.85
2023-04-09T01:20:17.451Z,65.89
2023-04-09T01:22:48.723Z,65.96
2023-04-09T01:25:55.980Z,65.98
2023-04-09T01:28:34.302Z,65.92
2023-04-09T01:31:14.150Z,66.02
2023-04-09T01:33:42.324Z,66.20
2023-04-09T01:36:11.067Z,66.30
2023-04-09T01:38:41.542Z,66.24
2023-04-09T01:41:12.799Z,66.29
2023-04-09T01:43:40.945Z,66.52
2023-04-09T01:46:09.208Z,66.71
2023-04-09T01:48:37.857Z,66.67
2023-04-09T01:51:06.505Z,66.73
2023-04-09T01:53:34.645Z,66.92
2023-04-09T01:56:04.589Z,67.03
2023-04-09T01:58:35.239Z,67.11
2023-04-09T02:01:13.127Z,67.14
2023-04-09T02:03:55.043Z,67.09
2023-04-09T02:06:47.566Z,67.22
2023-04-09T02:09:15.941Z,67.23
2023-04-09T02:11:44.016Z,67.26
2023-04-09T02:14:15.995Z,67.35
2023-04-09T02:16:46.638Z,67.49
2023-04-09T02:19:14.638Z,67.57
2023-04-09T02:21:48.444Z,67.73
2023-04-09T02:24:16.714Z,67.72
2023-04-09T02:26:44.948Z,67.67
2023-04-09T02:29:14.144Z,67.73
2023-04-09T02:31:42.539Z,67.78
2023-04-09T02:34:10.976Z,67.83
2023-04-09T02:36:39.130Z,67.78
2023-04-09T02:39:07.286Z,67.83
2023-04-09T02:41:37.154Z,67.98
2023-04-09T02:44:06.146Z,67.95
2023-04-09T02:46:34.552Z,68.02
2023-04-09T02:49:02.842Z,68.14
2023-04-09T02:51:31.606Z,68.25
2023-04-09T02:54:03.554Z,68.31
2023-04-09T02:56:32.549Z,68.28
2023-04-09T02:59:00.970Z,68.36
2023-04-09T03:01:30.946Z,68.36
2023-04-09T03:04:00.929Z,68.30
2023-04-09T03:06:29.653Z,68.44
2023-04-09T03:08:57.932Z,68.44
2023-04-09T03:11:26.543Z,68.44
2023-04-09T03:13:54.794Z,68.44
2023-04-09T03:16:25.281Z,68.49
2023-04-09T03:18:53.785Z,68.48
2023-04-09T03:21:22.807Z,68.40
2023-04-09T03:23:51.708Z,68.52
2023-04-09T03:26:20.766Z,68.44
2023-04-09T03:28:50.526Z,68.56
2023-04-09T03:31:19.227Z,68.66
2023-04-09T03:33:47.663Z,68.78
2023-04-09T03:36:18.498Z,68.74
2023-04-09T03:38:55.201Z,68.68
2023-04-09T03:41:35.630Z,68.71
2023-04-09T03:44:10.457Z,68.68
2023-04-09T03:47:01.165Z,68.65
2023-04-09T03:49:29.649Z,68.69
2023-04-09T03:52:02.474Z,68.79
2023-04-09T03:54:39.154Z,68.70
2023-04-09T03:57:12.494Z,68.71
2023-04-09T03:59:46.401Z,68.79
2023-04-09T04:02:16.592Z,68.75
2023-04-09T04:04:47.623Z,68.68
2023-04-09T04:07:17.169Z,68.64
2023-04-09T04:09:50.463Z,68.65
2023-04-09T04:12:25.997Z,68.54
2023-04-09T04:15:08.635Z,68.54
2023-04-09T04:17:41.245Z,68.53
2023-04-09T04:20:17.701Z,68.54
2023-04-09T04:23:20.098Z,68.54
2023-04-09T04:26:03.593Z,68.64
2023-04-09T04:28:40.150Z,68.72
2023-04-09T04:31:10.818Z,68.88
2023-04-09T04:33:41.514Z,68.94
2023-04-09T04:36:14.259Z,68.97
2023-04-09T04:38:54.262Z,69.09
2023-04-09T04:41:31.723Z,69.24
2023-04-09T04:44:16.504Z,69.28
2023-04-09T04:46:47.048Z,69.21
2023-04-09T04:49:15.543Z,69.17
2023-04-09T04:51:49.420Z,69.14
2023-04-09T04:54:18.004Z,69.06
2023-04-09T04:56:53.041Z,69.00
2023-04-09T04:59:38.854Z,68.79
2023-04-09T05:02:08.398Z,68.74
2023-04-09T05:04:44.287Z,68.59
2023-04-09T05:07:17.256Z,68.40
2023-04-09T05:09:54.255Z,68.25
2023-04-09T05:12:23.764Z,68.25
2023-04-09T05:14:58.552Z,68.02
2023-04-09T05:17:26.838Z,68.00
2023-04-09T05:19:55.159Z,67.96
2023-04-09T05:22:28.145Z,67.83
2023-04-09T05:24:56.227Z,67.91
2023-04-09T05:27:26.166Z,67.68
2023-04-09T05:30:00.368Z,67.56
2023-04-09T05:32:29.946Z,67.29
2023-04-09T05:34:58.793Z,67.11
2023-04-09T05:37:27.729Z,66.81
2023-04-09T05:39:58.948Z,66.59
2023-04-09T05:42:27.233Z,66.30
2023-04-09T05:45:07.329Z,65.84
2023-04-09T05:47:35.468Z,65.55
2023-04-09T05:50:12.254Z,65.20
2023-04-09T05:52:43.503Z,64.98
2023-04-09T05:55:13.475Z,64.63
2023-04-09T05:57:58.277Z,64.38
2023-04-09T06:00:34.028Z,64.24
2023-04-09T06:03:03.729Z,64.02
2023-04-09T06:05:32.330Z,63.80
2023-04-09T06:08:02.334Z,63.54
2023-04-09T06:10:32.951Z,63.33
2023-04-09T06:13:01.368Z,63.09
2023-04-09T06:15:35.078Z,62.91
2023-04-09T06:18:03.246Z,62.58
2023-04-09T06:20:31.794Z,62.29
2023-04-09T06:23:09.345Z,61.99
2023-04-09T06:25:39.148Z,61.87
2023-04-09T06:28:07.704Z,61.63
2023-04-09T06:30:37.202Z,61.38
2023-04-09T06:33:06.336Z,61.29
2023-04-09T06:35:34.714Z,61.04
2023-04-09T06:38:07.009Z,60.48
2023-04-09T06:40:38.157Z,60.02
2023-04-09T06:43:09.750Z,59.68
2023-04-09T06:45:47.655Z,59.35
2023-04-09T06:48:16.723Z,59.24
2023-04-09T06:50:46.052Z,59.18
2023-04-09T06:53:16.202Z,59.24
2023-04-09T06:55:44.382Z,59.30
2023-04-09T06:58:13.303Z,58.83
2023-04-09T07:00:42.050Z,58.74
2023-04-09T07:03:15.038Z,58.80
2023-04-09T07:05:43.437Z,58.86
2023-04-09T07:08:12.073Z,58.51
2023-04-09T07:10:42.401Z,58.22
2023-04-09T07:13:12.928Z,57.84
2023-04-09T07:15:42.583Z,57.40
2023-04-09T07:18:11.836Z,57.31
2023-04-09T07:20:43.288Z,57.33
2023-04-09T07:23:12.308Z,57.11
2023-04-09T07:25:42.441Z,56.66
2023-04-09T07:28:11.783Z,56.14
2023-04-09T07:30:40.078Z,55.68
2023-04-09T07:33:08.259Z,54.81
2023-04-09T07:35:38.685Z,53.78
2023-04-09T07:38:07.317Z,53.28
2023-04-09T07:40:36.978Z,52.94
2023-04-09T07:43:06.016Z,52.30
2023-04-09T07:45:34.358Z,51.55
2023-04-09T07:48:03.494Z,51.25
2023-04-09T07:50:32.963Z,51.21
2023-04-09T07:53:01.432Z,51.46
2023-04-09T07:55:29.806Z,51.32
2023-04-09T07:57:58.309Z,51.19
2023-04-09T08:00:33.042Z,51.54
2023-04-09T08:03:04.310Z,51.56
2023-04-09T08:05:32.785Z,51.17
2023-04-09T08:08:06.446Z,50.83
2023-04-09T08:10:34.622Z,50.86
2023-04-09T08:13:03.002Z,50.65
2023-04-09T08:15:38.204Z,50.33
2023-04-09T08:18:07.563Z,50.59
2023-04-09T08:20:36.299Z,50.87
2023-04-09T08:23:13.599Z,50.27
2023-04-09T08:25:42.932Z,50.17
2023-04-09T08:28:11.060Z,50.21
2023-04-09T08:30:41.002Z,50.27
2023-04-09T08:33:09.779Z,50.27
2023-04-09T08:35:40.519Z,50.10
2023-04-09T08:38:09.054Z,50.14
2023-04-09T08:40:37.566Z,50.27
2023-04-09T08:43:09.385Z,50.31
2023-04-09T08:45:41.675Z,50.50
2023-04-09T08:48:10.386Z,51.42
2023-04-09T08:50:39.873Z,52.03
2023-04-09T08:53:08.458Z,52.21
2023-04-09T08:55:37.906Z,52.47
2023-04-09T08:58:10.814Z,52.83
2023-04-09T09:00:43.176Z,52.83
2023-04-09T09:03:16.009Z,52.99
2023-04-09T09:05:45.696Z,52.91
2023-04-09T09:08:23.184Z,52.71
2023-04-09T09:10:51.664Z,52.77
2023-04-09T09:13:19.744Z,52.75
2023-04-09T09:15:50.562Z,52.65
2023-04-09T09:18:37.570Z,52.61
2023-04-09T09:21:12.061Z,52.83
2023-04-09T09:23:42.777Z,53.39
2023-04-09T09:26:21.772Z,54.00
2023-04-09T09:28:50.730Z,54.65
2023-04-09T09:31:21.222Z,55.10
2023-04-09T09:33:50.563Z,55.58
2023-04-09T09:36:34.726Z,56.18
2023-04-09T09:39:05.394Z,56.29
2023-04-09T09:41:36.815Z,56.54
2023-04-09T09:44:07.218Z,56.97
2023-04-09T09:46:38.464Z,57.27
2023-04-09T09:49:07.424Z,57.62
2023-04-09T09:51:40.129Z,57.46
2023-04-09T09:54:10.231Z,57.47
2023-04-09T09:56:39.544Z,57.61
2023-04-09T09:59:17.590Z,57.71
2023-04-09T10:01:46.334Z,57.71
2023-04-09T10:04:15.903Z,57.84
2023-04-09T10:06:45.031Z,58.02
2023-04-09T10:09:13.335Z,58.38
2023-04-09T10:11:45.729Z,58.80
2023-04-09T10:14:18.242Z,58.88
2023-04-09T10:16:46.651Z,58.81
2023-04-09T10:19:15.325Z,58.73
2023-04-09T10:21:48.758Z,58.61
2023-04-09T10:24:20.156Z,58.61
2023-04-09T10:26:48.983Z,58.44
2023-04-09T10:29:17.145Z,58.03
2023-04-09T10:31:53.136Z,57.62
2023-04-09T10:34:24.760Z,57.46
2023-04-09T10:36:55.825Z,57.42
2023-04-09T10:39:29.890Z,57.04
2023-04-09T10:41:58.764Z,57.02
2023-04-09T10:44:38.163Z,56.89
2023-04-09T10:47:32.489Z,57.01
2023-04-09T10:50:20.179Z,57.18
2023-04-09T10:52:52.987Z,57.41
2023-04-09T10:55:36.295Z,57.62
2023-04-09T10:58:13.270Z,58.09
2023-04-09T11:00:46.503Z,58.64
2023-04-09T11:03:22.378Z,59.03
2023-04-09T11:06:06.172Z,59.60
2023-04-09T11:08:39.279Z,60.12
2023-04-09T11:11:07.698Z,60.54
2023-04-09T11:13:41.776Z,61.12
2023-04-09T11:16:12.990Z,61.60
2023-04-09T11:19:02.969Z,62.08
2023-04-09T11:21:48.438Z,62.60
2023-04-09T11:24:18.916Z,62.96
2023-04-09T11:26:52.008Z,63.29
2023-04-09T11:29:37.062Z,63.48
2023-04-09T11:32:05.626Z,63.69
2023-04-09T11:34:53.459Z,63.99
2023-04-09T11:37:28.863Z,64.26
2023-04-09T11:39:58.430Z,64.38
2023-04-09T11:42:31.686Z,64.13
2023-04-09T11:45:07.247Z,63.31
2023-04-09T11:47:51.293Z,62.44
2023-04-09T11:50:23.273Z,62.13
2023-04-09T11:52:52.502Z,62.18
2023-04-09T11:55:31.092Z,61.91
2023-04-09T11:58:11.779Z,61.76
2023-04-09T12:00:45.438Z,61.10
2023-04-09T12:03:31.029Z,60.21
2023-04-09T12:06:02.978Z,59.93
2023-04-09T12:08:35.981Z,59.56
2023-04-09T12:11:12.841Z,59.49
2023-04-09T12:13:44.714Z,59.80
2023-04-09T12:16:14.435Z,59.62
2023-04-09T12:19:09.222Z,59.56
2023-04-09T12:21:58.529Z,59.23
2023-04-09T12:24:28.243Z,59.11
2023-04-09T12:27:07.663Z,59.03
2023-04-09T12:29:36.229Z,58.88
2023-04-09T12:32:05.056Z,58.97
2023-04-09T12:34:36.182Z,59.33
2023-04-09T12:37:04.972Z,58.90
2023-04-09T12:39:34.453Z,57.87
2023-04-09T12:42:04.492Z,57.39
2023-04-09T12:44:37.357Z,57.27
2023-04-09T12:47:05.380Z,57.11
2023-04-09T12:49:33.421Z,57.49
2023-04-09T12:52:01.664Z,57.91
2023-04-09T12:54:31.619Z,57.62
2023-04-09T12:57:01.548Z,57.18
2023-04-09T12:59:32.007Z,56.67
2023-04-09T13:02:02.330Z,56.10
2023-04-09T13:04:31.523Z,55.82
2023-04-09T13:07:03.064Z,55.53
2023-04-09T13:09:31.678Z,55.68
2023-04-09T13:12:13.114Z,55.98
2023-04-09T13:14:44.613Z,56.13
2023-04-09T13:17:15.597Z,56.18
2023-04-09T13:19:44.287Z,56.50
2023-04-09T13:22:12.652Z,56.98
2023-04-09T13:24:43.376Z,56.83
2023-04-09T13:27:14.455Z,56.56
2023-04-09T13:29:45.732Z,56.29
2023-04-09T13:32:14.507Z,56.14
2023-04-09T13:34:55.898Z,55.78
2023-04-09T13:37:26.222Z,55.44
2023-04-09T13:39:54.287Z,55.26
2023-04-09T13:42:22.800Z,55.12
2023-04-09T13:44:51.399Z,54.84
2023-04-09T13:47:24.171Z,54.43
2023-04-09T13:49:53.383Z,54.19
2023-04-09T13:52:21.471Z,53.60
2023-04-09T13:54:50.658Z,53.36
2023-04-09T13:57:18.650Z,53.27
2023-04-09T13:59:47.517Z,53.20
2023-04-09T14:02:18.227Z,52.74
2023-04-09T14:04:46.529Z,52.80
2023-04-09T14:07:14.910Z,52.79
2023-04-09T14:09:45.943Z,52.54
2023-04-09T14:12:14.673Z,52.57
2023-04-09T14:14:43.859Z,52.84
2023-04-09T14:17:11.815Z,53.22
2023-04-09T14:19:40.507Z,53.75
2023-04-09T14:22:18.515Z,54.09
2023-04-09T14:24:46.509Z,54.43
2023-04-09T14:27:14.942Z,54.78
2023-04-09T14:29:46.479Z,55.01
2023-04-09T14:32:23.695Z,55.27
2023-04-09T14:35:07.952Z,55.68
2023-04-09T14:37:42.211Z,55.96
2023-04-09T14:40:13.149Z,55.94
2023-04-09T14:42:45.654Z,55.96
2023-04-09T14:45:24.414Z,56.20
2023-04-09T14:47:52.501Z,56.62
2023-04-09T14:50:25.831Z,57.00
2023-04-09T14:52:56.907Z,57.42
2023-04-09T14:55:44.825Z,57.94
2023-04-09T14:58:19.888Z,58.29
2023-04-09T15:00:59.389Z,58.61
2023-04-09T15:03:31.804Z,58.94
2023-04-09T15:06:12.644Z,59.30
2023-04-09T15:08:40.722Z,59.70
2023-04-09T15:11:23.119Z,59.95
2023-04-09T15:13:57.930Z,60.25
2023-04-09T15:16:28.104Z,60.44
2023-04-09T15:19:05.407Z,60.71
2023-04-09T15:21:38.156Z,60.84
2023-04-09T15:24:08.182Z,60.93
2023-04-09T15:26:39.155Z,61.10
2023-04-09T15:29:15.537Z,61.06
2023-04-09T15:31:56.433Z,61.18
2023-04-09T15:34:32.738Z,61.23
2023-04-09T15:37:03.512Z,61.34
2023-04-09T15:39:32.660Z,61.49
2023-04-09T15:42:02.244Z,61.55
2023-04-09T15:44:31.606Z,61.62
2023-04-09T15:47:10.886Z,61.71
2023-04-09T15:49:43.008Z,61.73
2023-04-09T15:52:13.685Z,61.83
2023-04-09T15:54:41.668Z,61.78
2023-04-09T15:57:12.436Z,62.02
2023-04-09T15:59:44.118Z,62.10
2023-04-09T16:02:15.764Z,62.47
2023-04-09T16:04:47.359Z,62.45
2023-04-09T16:07:18.676Z,62.51
2023-04-09T16:09:54.564Z,62.67
2023-04-09T16:12:26.097Z,62.71
2023-04-09T16:15:08.004Z,62.89
2023-04-09T16:17:40.938Z,62.83
2023-04-09T16:20:11.598Z,62.89
2023-04-09T16:22:45.386Z,62.96
2023-04-09T16:25:14.415Z,62.89
2023-04-09T16:27:43.572Z,62.92
2023-04-09T16:30:12.567Z,63.00
2023-04-09T16:32:46.992Z,62.85
2023-04-09T16:35:15.504Z,62.71
2023-04-09T16:37:51.857Z,62.78
2023-04-09T16:40:24.414Z,62.82
2023-04-09T16:42:56.873Z,62.89
2023-04-09T16:45:24.896Z,63.07
2023-04-09T16:48:13.479Z,63.29
2023-04-09T16:50:42.953Z,63.18
2023-04-09T16:53:14.569Z,63.40
2023-04-09T16:55:45.033Z,63.59
2023-04-09T16:58:12.998Z,63.76
2023-04-09T17:00:44.146Z,63.80
2023-04-09T17:03:14.312Z,64.09
2023-04-09T17:05:42.377Z,64.26
2023-04-09T17:08:11.088Z,64.47
2023-04-09T17:10:44.254Z,64.68
2023-04-09T17:13:16.406Z,64.85
2023-04-09T17:15:44.709Z,64.88
2023-04-09T17:18:32.690Z,64.86
2023-04-09T17:21:01.519Z,65.05
2023-04-09T17:23:34.217Z,65.16
2023-04-09T17:26:02.555Z,65.23
2023-04-09T17:28:34.027Z,65.21
2023-04-09T17:31:02.462Z,65.13
2023-04-09T17:33:50.455Z,65.31
2023-04-09T17:36:19.905Z,65.36
2023-04-09T17:38:53.148Z,65.42
2023-04-09T17:41:21.300Z,65.34
2023-04-09T17:43:53.715Z,65.31
2023-04-09T17:46:23.888Z,65.41
2023-04-09T17:48:55.331Z,65.53
2023-04-09T17:51:30.291Z,65.67
2023-04-09T17:54:04.800Z,65.94
2023-04-09T17:56:39.001Z,65.98
2023-04-09T17:59:12.142Z,66.21
2023-04-09T18:02:00.978Z,66.23
2023-04-09T18:04:29.592Z,66.32
2023-04-09T18:06:57.969Z,66.43
2023-04-09T18:09:26.238Z,66.52
2023-04-09T18:11:56.549Z,66.66
2023-04-09T18:14:32.652Z,66.82
2023-04-09T18:17:04.841Z,67.03
2023-04-09T18:19:32.932Z,67.02
2023-04-09T18:22:01.342Z,67.09
2023-04-09T18:24:35.247Z,67.18
2023-04-09T18:27:03.874Z,67.24
2023-04-09T18:29:36.723Z,67.30
2023-04-09T18:32:05.012Z,67.39
2023-04-09T18:34:36.567Z,67.38
2023-04-09T18:37:04.981Z,67.46
2023-04-09T18:39:40.326Z,67.69
2023-04-09T18:42:10.162Z,67.62
2023-04-09T18:44:40.751Z,67.72
2023-04-09T18:47:12.753Z,67.87
2023-04-09T18:49:41.527Z,67.93
2023-04-09T18:52:13.297Z,67.91
2023-04-09T18:54:49.349Z,68.00
2023-04-09T18:57:17.774Z,68.02
2023-04-09T18:59:46.827Z,68.06
2023-04-09T19:02:15.502Z,68.22
2023-04-09T19:04:45.103Z,68.16
2023-04-09T19:07:13.624Z,68.24
2023-04-09T19:09:42.161Z,68.20
2023-04-09T19:12:10.999Z,68.29
2023-04-09T19:14:40.684Z,68.37
2023-04-09T19:17:10.541Z,68.32
2023-04-09T19:19:38.869Z,68.40
2023-04-09T19:22:08.276Z,68.49
2023-04-09T19:24:41.362Z,68.63
2023-04-09T19:27:11.875Z,68.57
2023-04-09T19:29:40.462Z,68.42
2023-04-09T19:32:13.531Z,68.48
2023-04-09T19:34:45.003Z,68.49
2023-04-09T19:37:15.218Z,68.45
2023-04-09T19:39:43.723Z,68.52
2023-04-09T19:42:12.190Z,68.43
2023-04-09T19:44:41.802Z,68.47
2023-04-09T19:47:10.516Z,68.44
2023-04-09T19:49:39.491Z,68.61
2023-04-09T19:52:08.762Z,68.68
2023-04-09T19:54:37.660Z,68.66
2023-04-09T19:57:12.809Z,68.79
2023-04-09T19:59:43.244Z,68.78
2023-04-09T20:02:15.616Z,68.75
2023-04-09T20:04:43.967Z,68.79
2023-04-09T20:07:12.343Z,68.82
2023-04-09T20:09:43.679Z,68.93
2023-04-09T20:12:14.122Z,69.04
2023-04-09T20:14:43.391Z,68.99
2023-04-09T20:17:20.387Z,68.98
2023-04-09T20:19:58.464Z,69.09
2023-04-09T20:22:33.650Z,69.12
2023-04-09T20:25:04.914Z,69.01
2023-04-09T20:27:33.662Z,69.06
2023-04-09T20:30:03.308Z,69.04
2023-04-09T20:32:37.950Z,69.18
2023-04-09T20:35:08.242Z,69.19
2023-04-09T20:37:36.879Z,69.23
2023-04-09T20:40:06.822Z,69.25
2023-04-09T20:47:09.824Z,69.18
2023-04-09T20:49:37.958Z,69.19
2023-04-09T20:52:09.235Z,69.22
2023-04-09T20:54:39.247Z,69.24
2023-04-09T20:57:07.248Z,69.30
2023-04-09T20:59:36.317Z,69.27
2023-04-09T21:02:04.778Z,69.24
2023-04-09T21:04:32.996Z,69.23
2023-04-09T21:07:01.256Z,69.26
2023-04-09T21:09:29.724Z,69.30
2023-04-09T21:12:04.902Z,69.33
2023-04-09T21:14:34.471Z,69.26
2023-04-09T21:17:02.548Z,69.27
2023-04-09T21:19:30.799Z,69.15
2023-04-09T21:21:58.854Z,69.15
2023-04-09T21:24:27.884Z,69.13
2023-04-09T21:26:55.933Z,69.10
2023-04-09T21:29:25.428Z,69.19
2023-04-09T21:31:54.047Z,69.23
2023-04-09T21:34:22.159Z,69.13
2023-04-09T21:36:51.320Z,69.12
2023-04-09T21:39:19.789Z,69.09
2023-04-09T21:41:47.891Z,69.20
2023-04-09T21:44:16.818Z,69.15
2023-04-09T21:51:18.544Z,69.27
2023-04-09T21:53:47.597Z,69.20
2023-04-09T21:56:16.022Z,69.39
2023-04-09T21:58:43.998Z,69.39
2023-04-09T22:01:22.618Z,69.46
2023-04-09T22:08:34.054Z,69.52
2023-04-09T22:11:03.313Z,69.46
2023-04-09T22:13:31.838Z,69.39
2023-04-09T22:16:01.103Z,69.59
2023-04-09T22:18:29.920Z,69.53
2023-04-09T22:21:17.040Z,69.56
2023-04-09T22:23:45.417Z,69.50
2023-04-09T22:26:13.760Z,69.55
2023-04-09T22:28:42.997Z,69.49
2023-04-09T22:31:11.079Z,69.49
2023-04-09T22:33:39.612Z,69.70
2023-04-09T22:36:08.270Z,69.93
2023-04-09T22:38:36.385Z,69.97
2023-04-09T22:45:54.533Z,70.02
2023-04-09T22:48:23.283Z,70.13
2023-04-09T22:50:51.343Z,70.13
2023-04-09T22:53:20.809Z,70.07
2023-04-09T22:55:54.601Z,70.13
2023-04-09T22:58:22.572Z,70.06
2023-04-09T23:00:50.990Z,70.00
2023-04-09T23:03:19.031Z,70.00
2023-04-09T23:05:47.185Z,70.09
2023-04-09T23:08:15.332Z,70.32
2023-04-09T23:10:51.576Z,70.20
2023-04-09T23:13:19.740Z,70.22
2023-04-09T23:15:48.451Z,70.19
2023-04-09T23:18:16.695Z,70.19
2023-04-09T23:20:44.618Z,70.22
2023-04-09T23:23:13.676Z,70.26
2023-04-09T23:25:45.297Z,70.14
2023-04-09T23:28:13.228Z,70.31
2023-04-09T23:30:41.510Z,70.21
2023-04-09T23:33:09.839Z,70.20
2023-04-09T23:35:38.179Z,70.30
2023-04-09T23:38:11.077Z,70.34
2023-04-09T23:40:40.581Z,70.48
2023-04-09T23:43:08.956Z,70.47
2023-04-09T23:50:28.743Z,70.28
2023-04-09T23:53:03.402Z,70.44
2023-04-09T23:55:33.358Z,70.72
2023-04-09T23:58:02.093Z,70.63
